aviador You're here:

LFRG Decoded Metar

DEAUVILLE in FRANCE
Report Time2017-09-23 11:00:00
UTC Time2017-09-23 11:11:41
Flight Rules vfr VFR
Wind190° at 07 kt
W.Decomp.*RWY 12: 2.3 kt HW 6.6 kt RCW
W.Rank190° ranks 9
Current wind is below 190° avg. (7.5)
Visibility9999 m
Phenomena:N/A
Clouds:N/A
Expected CloudBase > 3,200 ft AGL from Temp-Dew spread
CeilingNone
Temp18°C (ISA +4)
Dew Point10°C (60% RH)
AAT15.6°C
QNH1023 hPa
Density Alt774 ft
Elevation479 ft
Report Wrong Elevation
Raw Report
METAR LFRG 231100Z AUTO 19007KT 160V220 CAVOK 18/10 Q1023 NOSIG=

Extra information for LFRG:More info

Metar Taf Metar & Taf Last 4 Metars F.Rules Stats Wind Profile Meteogram Temp Stats Airport Information Weather charts Add Link Nearby VenuesMetar ALERT Operation Metar Decoded Social comments